createdAt,value
2023-01-29T00:00:42.831Z,9.8
2023-01-29T00:01:51.214Z,9.8
2023-01-29T00:02:59.610Z,9.8
2023-01-29T00:04:08.072Z,9.6
2023-01-29T00:05:27.308Z,9.6
2023-01-29T00:06:24.770Z,9.6
2023-01-29T00:07:33.308Z,10
2023-01-29T00:08:41.641Z,10
2023-01-29T00:09:49.985Z,10
2023-01-29T00:10:58.532Z,9.8
2023-01-29T00:12:06.897Z,9.8
2023-01-29T00:13:15.240Z,9.8
2023-01-29T00:14:23.784Z,8.6
2023-01-29T00:15:32.120Z,8.6
2023-01-29T00:16:40.558Z,8.6
2023-01-29T00:17:49.056Z,10
2023-01-29T00:18:57.407Z,10
2023-01-29T00:20:05.750Z,10
2023-01-29T00:21:14.300Z,8.3
2023-01-29T00:22:22.693Z,8.3
2023-01-29T00:23:31.013Z,8.3
2023-01-29T00:24:39.571Z,7.5
2023-01-29T00:25:47.915Z,7.5
2023-01-29T00:26:56.259Z,7.5
2023-01-29T00:28:04.817Z,9.7
2023-01-29T00:29:13.158Z,9.7
2023-01-29T00:30:21.516Z,9.7
2023-01-29T00:31:30.180Z,7.7
2023-01-29T00:32:38.402Z,7.7
2023-01-29T00:33:46.735Z,7.7
2023-01-29T00:34:55.291Z,9.9
2023-01-29T00:36:03.645Z,9.9
2023-01-29T00:37:11.990Z,9.9
2023-01-29T00:38:20.565Z,8.5
2023-01-29T00:39:39.329Z,8.5
2023-01-29T00:40:37.235Z,8.5
2023-01-29T00:41:45.795Z,7.9
2023-01-29T00:42:54.146Z,7.9
2023-01-29T00:44:02.488Z,7.9
2023-01-29T00:45:11.034Z,10.6
2023-01-29T00:46:19.407Z,10.6
2023-01-29T00:47:27.749Z,10.6
2023-01-29T00:48:36.293Z,9.7
2023-01-29T00:49:44.639Z,9.7
2023-01-29T00:50:52.986Z,9.7
2023-01-29T00:52:01.566Z,11.1
2023-01-29T00:53:09.921Z,11.1
2023-01-29T00:54:18.364Z,11.1
2023-01-29T00:55:26.785Z,10.2
2023-01-29T00:56:35.137Z,10.2
2023-01-29T00:57:43.496Z,10.2
2023-01-29T00:58:52.048Z,9.5
2023-01-29T01:00:00.412Z,9.5
2023-01-29T01:01:08.752Z,9.5
2023-01-29T01:02:17.357Z,9
2023-01-29T01:03:25.652Z,9
2023-01-29T01:04:35.059Z,9
2023-01-29T01:05:42.547Z,7.7
2023-01-29T01:06:50.880Z,7.7
2023-01-29T01:07:59.232Z,7.7
2023-01-29T01:09:07.777Z,8.8
2023-01-29T01:10:16.601Z,8.8
2023-01-29T01:11:24.609Z,8.8
2023-01-29T01:12:33.187Z,13.5
2023-01-29T01:13:41.530Z,13.5
2023-01-29T01:14:49.867Z,13.5
2023-01-29T01:15:58.472Z,8.9
2023-01-29T01:17:06.762Z,8.9
2023-01-29T01:18:15.104Z,8.9
2023-01-29T01:19:23.656Z,7.5
2023-01-29T01:20:32.020Z,7.5
2023-01-29T01:21:40.369Z,7.5
2023-01-29T01:22:48.913Z,10
2023-01-29T01:23:57.278Z,10
2023-01-29T01:25:05.643Z,10
2023-01-29T01:26:14.191Z,9.1
2023-01-29T01:27:22.538Z,9.1
2023-01-29T01:28:30.892Z,9.1
2023-01-29T01:29:39.450Z,9.6
2023-01-29T01:30:47.901Z,9.6
2023-01-29T01:31:56.244Z,9.6
2023-01-29T01:33:04.756Z,11.7
2023-01-29T01:34:13.090Z,11.7
2023-01-29T01:35:21.447Z,11.7
2023-01-29T01:36:30.027Z,10.7
2023-01-29T01:37:38.384Z,10.7
2023-01-29T01:38:46.726Z,10.7
2023-01-29T01:39:55.283Z,9.3
2023-01-29T01:41:03.638Z,9.3
2023-01-29T01:42:12.014Z,9.3
2023-01-29T01:43:20.541Z,10
2023-01-29T01:44:28.893Z,10
2023-01-29T01:45:37.266Z,10
2023-01-29T01:46:45.788Z,9.8
2023-01-29T01:47:54.133Z,9.8
2023-01-29T01:49:02.469Z,9.8
2023-01-29T01:50:11.016Z,8.9
2023-01-29T01:51:19.374Z,8.9
2023-01-29T01:52:27.734Z,8.9
2023-01-29T01:53:36.281Z,11.3
2023-01-29T01:54:44.669Z,11.3
2023-01-29T01:55:52.993Z,11.3
2023-01-29T01:57:01.573Z,11.7
2023-01-29T01:58:09.919Z,11.7
2023-01-29T01:59:18.246Z,11.7
2023-01-29T02:00:26.805Z,9.4
2023-01-29T02:01:35.166Z,9.4
2023-01-29T02:02:43.496Z,9.4
2023-01-29T02:03:52.070Z,9.8
2023-01-29T02:05:00.412Z,9.8
2023-01-29T02:06:08.753Z,9.8
2023-01-29T02:07:17.397Z,9.7
2023-01-29T02:08:25.729Z,9.7
2023-01-29T02:09:34.079Z,9.7
2023-01-29T02:10:42.629Z,9.5
2023-01-29T02:11:50.993Z,9.5
2023-01-29T02:12:59.337Z,9.5
2023-01-29T02:14:07.915Z,8.9
2023-01-29T02:15:16.250Z,8.9
2023-01-29T02:16:24.587Z,8.9
2023-01-29T02:17:33.201Z,9.3
2023-01-29T02:18:41.494Z,9.3
2023-01-29T02:19:49.839Z,9.3
2023-01-29T02:20:58.389Z,9.5
2023-01-29T02:22:06.770Z,9.5
2023-01-29T02:23:15.121Z,9.5
2023-01-29T02:24:23.732Z,10.1
2023-01-29T02:25:32.061Z,10.1
2023-01-29T02:26:40.426Z,10.1
2023-01-29T02:27:48.983Z,10.2
2023-01-29T02:28:57.332Z,10.2
2023-01-29T02:30:05.702Z,10.2
2023-01-29T02:31:14.241Z,8.4
2023-01-29T02:32:22.567Z,8.4
2023-01-29T02:33:30.912Z,8.4
2023-01-29T02:34:39.482Z,7.7
2023-01-29T02:35:47.831Z,7.7
2023-01-29T02:36:56.180Z,7.7
2023-01-29T02:38:04.736Z,9.8
2023-01-29T02:39:13.071Z,9.8
2023-01-29T02:40:21.424Z,9.8
2023-01-29T02:41:29.966Z,8.4
2023-01-29T02:42:38.309Z,8.4
2023-01-29T02:43:46.685Z,8.4
2023-01-29T02:44:55.226Z,8.9
2023-01-29T02:46:03.615Z,8.9
2023-01-29T02:47:11.931Z,8.9
2023-01-29T02:48:20.495Z,8.9
2023-01-29T02:49:28.825Z,8.9
2023-01-29T02:50:37.185Z,8.9
2023-01-29T02:51:45.732Z,8.6
2023-01-29T02:52:54.118Z,8.6
2023-01-29T02:54:02.469Z,8.6
2023-01-29T02:55:11.022Z,11.2
2023-01-29T02:56:19.363Z,11.2
2023-01-29T02:57:27.734Z,11.2
2023-01-29T02:58:36.293Z,8.6
2023-01-29T02:59:44.639Z,8.6
2023-01-29T03:00:52.992Z,8.6
2023-01-29T03:02:01.628Z,8.1
2023-01-29T03:03:09.872Z,8.1
2023-01-29T03:04:18.215Z,8.1
2023-01-29T03:05:26.757Z,7.7
2023-01-29T03:06:35.112Z,7.7
2023-01-29T03:07:43.467Z,7.7
2023-01-29T03:08:52.051Z,7.9
2023-01-29T03:10:00.399Z,7.9
2023-01-29T03:11:08.765Z,7.9
2023-01-29T03:12:19.533Z,8.9
2023-01-29T03:13:25.684Z,8.9
2023-01-29T03:14:34.019Z,8.9
2023-01-29T03:15:42.577Z,8.8
2023-01-29T03:16:50.948Z,8.8
2023-01-29T03:17:59.331Z,8.8
2023-01-29T03:19:07.859Z,9.6
2023-01-29T03:20:16.759Z,9.6
2023-01-29T03:21:24.785Z,9.6
2023-01-29T03:22:33.373Z,8.7
2023-01-29T03:23:41.708Z,8.7
2023-01-29T03:24:50.067Z,8.7
2023-01-29T03:25:58.628Z,8.7
2023-01-29T03:27:06.971Z,8.7
2023-01-29T03:28:15.305Z,8.7
2023-01-29T03:29:23.856Z,9
2023-01-29T03:30:32.180Z,9
2023-01-29T03:31:40.671Z,9
2023-01-29T03:32:49.094Z,9
2023-01-29T03:33:57.460Z,9
2023-01-29T03:35:05.785Z,9
2023-01-29T03:36:14.337Z,9.2
2023-01-29T03:37:22.692Z,9.2
2023-01-29T03:38:31.041Z,9.2
2023-01-29T03:39:39.596Z,8.3
2023-01-29T03:40:47.949Z,8.3
2023-01-29T03:41:56.314Z,8.3
2023-01-29T03:43:04.857Z,9
2023-01-29T03:44:13.204Z,9
2023-01-29T03:45:21.561Z,9
2023-01-29T03:46:30.106Z,9.9
2023-01-29T03:47:38.448Z,9.9
2023-01-29T03:48:46.775Z,9.9
2023-01-29T03:49:55.320Z,11.9
2023-01-29T03:51:03.692Z,11.9
2023-01-29T03:52:12.040Z,11.9
2023-01-29T03:53:20.594Z,13.7
2023-01-29T03:54:28.937Z,13.7
2023-01-29T03:55:37.296Z,13.7
2023-01-29T03:56:45.854Z,11.2
2023-01-29T03:57:54.198Z,11.2
2023-01-29T03:59:02.570Z,11.2
2023-01-29T04:00:11.093Z,10.6
2023-01-29T04:01:19.481Z,10.6
2023-01-29T04:02:27.963Z,10.6
2023-01-29T04:03:36.384Z,11.2
2023-01-29T04:04:44.721Z,11.2
2023-01-29T04:05:53.067Z,11.2
2023-01-29T04:07:01.629Z,10.1
2023-01-29T04:08:09.972Z,10.1
2023-01-29T04:09:18.328Z,10.1
2023-01-29T04:10:26.878Z,12
2023-01-29T04:11:35.251Z,12
2023-01-29T04:12:43.598Z,12
2023-01-29T04:13:52.152Z,10.4
2023-01-29T04:15:00.500Z,10.4
2023-01-29T04:16:08.893Z,10.4
2023-01-29T04:17:17.439Z,11.2
2023-01-29T04:18:25.745Z,11.2
2023-01-29T04:19:34.113Z,11.2
2023-01-29T04:20:42.655Z,10.8
2023-01-29T04:21:51.062Z,10.8
2023-01-29T04:22:59.409Z,10.8
2023-01-29T04:24:07.999Z,10.3
2023-01-29T04:25:16.316Z,10.3
2023-01-29T04:26:24.668Z,10.3
2023-01-29T04:27:33.223Z,12.7
2023-01-29T04:28:41.568Z,12.7
2023-01-29T04:29:49.920Z,12.7
2023-01-29T04:30:58.570Z,12.2
2023-01-29T04:32:06.863Z,12.2
2023-01-29T04:33:15.239Z,12.2
2023-01-29T04:34:23.809Z,11.1
2023-01-29T04:35:32.137Z,11.1
2023-01-29T04:36:40.514Z,11.1
2023-01-29T04:37:49.065Z,12.5
2023-01-29T04:38:57.402Z,12.5
2023-01-29T04:40:05.754Z,12.5
2023-01-29T04:41:14.301Z,11.6
2023-01-29T04:42:22.679Z,11.6
2023-01-29T04:43:31.027Z,11.6
2023-01-29T04:44:39.560Z,11.6
2023-01-29T04:45:47.912Z,11.6
2023-01-29T04:46:56.263Z,11.6
2023-01-29T04:48:04.834Z,9.1
2023-01-29T04:49:13.168Z,9.1
2023-01-29T04:50:21.511Z,9.1
2023-01-29T04:51:30.086Z,8.6
2023-01-29T04:52:38.466Z,8.6
2023-01-29T04:53:46.824Z,8.6
2023-01-29T04:54:55.384Z,8.8
2023-01-29T04:56:03.733Z,8.8
2023-01-29T04:57:12.070Z,8.8
2023-01-29T04:58:20.632Z,7.3
2023-01-29T04:59:28.988Z,7.3
2023-01-29T05:00:37.347Z,7.3
2023-01-29T05:01:45.944Z,10.3
2023-01-29T05:02:54.317Z,10.3
2023-01-29T05:04:02.599Z,10.3
2023-01-29T05:05:11.143Z,8.8
2023-01-29T05:06:19.491Z,8.8
2023-01-29T05:07:27.856Z,8.8
2023-01-29T05:08:36.411Z,8.7
2023-01-29T05:09:44.751Z,8.7
2023-01-29T05:10:53.087Z,8.7
2023-01-29T05:12:01.647Z,9.8
2023-01-29T05:13:10.017Z,9.8
2023-01-29T05:14:18.356Z,9.8
2023-01-29T05:15:26.910Z,10.3
2023-01-29T05:16:35.275Z,10.3
2023-01-29T05:17:43.619Z,10.3
2023-01-29T05:18:52.188Z,9.5
2023-01-29T05:20:00.540Z,9.5
2023-01-29T05:21:08.882Z,9.5
2023-01-29T05:22:17.471Z,8.8
2023-01-29T05:23:25.841Z,8.8
2023-01-29T05:24:34.236Z,8.8
2023-01-29T05:25:42.770Z,7.9
2023-01-29T05:26:51.144Z,7.9
2023-01-29T05:27:59.499Z,7.9
2023-01-29T05:29:08.057Z,8.2
2023-01-29T05:30:16.775Z,8.2
2023-01-29T05:31:24.876Z,8.2
2023-01-29T05:32:33.331Z,6.8
2023-01-29T05:33:41.671Z,6.8
2023-01-29T05:34:50.062Z,6.8
2023-01-29T05:35:58.571Z,8.3
2023-01-29T05:37:06.921Z,8.3
2023-01-29T05:38:15.256Z,8.3
2023-01-29T05:39:23.804Z,9.7
2023-01-29T05:40:32.152Z,9.7
2023-01-29T05:41:40.508Z,9.7
2023-01-29T05:42:49.108Z,8.3
2023-01-29T05:43:57.459Z,8.3
2023-01-29T05:45:05.893Z,8.3
2023-01-29T05:46:14.421Z,8.5
2023-01-29T05:47:22.732Z,8.5
2023-01-29T05:48:31.086Z,8.5
2023-01-29T05:49:39.624Z,8.2
2023-01-29T05:50:47.971Z,8.2
2023-01-29T05:51:56.335Z,8.2
2023-01-29T05:53:04.932Z,8.3
2023-01-29T05:54:13.263Z,8.3
2023-01-29T05:55:21.622Z,8.3
2023-01-29T05:56:30.176Z,8.1
2023-01-29T05:57:38.537Z,8.1
2023-01-29T05:58:46.901Z,8.1
2023-01-29T05:59:55.449Z,8.4
2023-01-29T06:01:03.823Z,8.4
2023-01-29T06:02:12.243Z,8.4
2023-01-29T06:03:20.746Z,10.5
2023-01-29T06:04:29.091Z,10.5
2023-01-29T06:05:37.439Z,10.5
2023-01-29T06:06:45.997Z,9.3
2023-01-29T06:07:54.355Z,9.3
2023-01-29T06:09:02.687Z,9.3
2023-01-29T06:10:11.255Z,9.3
2023-01-29T06:11:19.603Z,9.3
2023-01-29T06:12:27.971Z,9.3
2023-01-29T06:13:36.533Z,9.5
2023-01-29T06:14:44.885Z,9.5
2023-01-29T06:15:53.262Z,9.5
2023-01-29T06:17:01.785Z,9.6
2023-01-29T06:18:10.135Z,9.6
2023-01-29T06:19:18.556Z,9.6
2023-01-29T06:20:27.126Z,9.6
2023-01-29T06:21:35.499Z,9.6
2023-01-29T06:22:43.854Z,9.6
2023-01-29T06:23:52.406Z,10.8
2023-01-29T06:25:00.749Z,10.8
2023-01-29T06:26:09.109Z,10.8
2023-01-29T06:27:17.707Z,10.3
2023-01-29T06:28:26.064Z,10.3
2023-01-29T06:29:34.410Z,10.3
2023-01-29T06:30:43.018Z,11.4
2023-01-29T06:31:51.408Z,11.4
2023-01-29T06:32:59.705Z,11.4
2023-01-29T06:34:08.272Z,10.2
2023-01-29T06:35:16.616Z,10.2
2023-01-29T06:36:24.956Z,10.2
2023-01-29T06:37:33.532Z,9.3
2023-01-29T06:38:41.898Z,9.3
2023-01-29T06:39:50.262Z,9.3
2023-01-29T06:40:58.810Z,10.4
2023-01-29T06:42:07.179Z,10.4
2023-01-29T06:43:15.518Z,10.4
2023-01-29T06:44:24.085Z,103.5
2023-01-29T06:45:32.537Z,103.5
2023-01-29T06:46:40.832Z,103.5
2023-01-29T06:47:49.411Z,13.1
2023-01-29T06:48:57.767Z,13.1
2023-01-29T06:50:06.116Z,13.1
2023-01-29T06:51:14.677Z,9.5
2023-01-29T06:52:23.048Z,9.5
2023-01-29T06:53:31.436Z,9.5
2023-01-29T06:54:39.977Z,9.9
2023-01-29T06:55:48.329Z,9.9
2023-01-29T06:56:56.715Z,9.9
2023-01-29T06:58:05.298Z,9.4
2023-01-29T06:59:13.685Z,9.4
2023-01-29T07:00:22.041Z,9.4
2023-01-29T07:01:35.925Z,14
2023-01-29T07:02:38.986Z,14
2023-01-29T07:03:47.320Z,14
2023-01-29T07:04:55.874Z,11.3
2023-01-29T07:06:04.360Z,11.3
2023-01-29T07:07:12.826Z,11.3
2023-01-29T07:08:21.481Z,9.6
2023-01-29T07:09:29.912Z,9.6
2023-01-29T07:10:38.263Z,9.6
2023-01-29T07:11:46.827Z,9.8
2023-01-29T07:12:55.182Z,9.8
2023-01-29T07:14:03.522Z,9.8
2023-01-29T07:15:12.094Z,10.3
2023-01-29T07:16:20.596Z,10.3
2023-01-29T07:17:28.868Z,10.3
2023-01-29T07:18:37.420Z,9.3
2023-01-29T07:19:45.776Z,9.3
2023-01-29T07:20:54.133Z,9.3
2023-01-29T07:22:02.693Z,11.8
2023-01-29T07:23:11.044Z,11.8
2023-01-29T07:24:19.534Z,11.8
2023-01-29T07:25:27.948Z,10.1
2023-01-29T07:26:36.304Z,10.1
2023-01-29T07:27:44.653Z,10.1
2023-01-29T07:28:53.216Z,9.2
2023-01-29T07:30:01.584Z,9.2
2023-01-29T07:31:09.997Z,9.2
2023-01-29T07:32:18.572Z,9.4
2023-01-29T07:33:26.867Z,9.4
2023-01-29T07:34:35.250Z,9.4
2023-01-29T07:35:43.822Z,9.1
2023-01-29T07:36:52.183Z,9.1
2023-01-29T07:38:00.548Z,9.1
2023-01-29T07:39:09.126Z,9.4
2023-01-29T07:40:17.679Z,9.4
2023-01-29T07:41:25.828Z,9.4
2023-01-29T07:42:34.397Z,9.3
2023-01-29T07:43:42.732Z,9.3
2023-01-29T07:44:51.072Z,9.3
2023-01-29T07:45:59.686Z,10
2023-01-29T07:47:08.021Z,10
2023-01-29T07:48:16.372Z,10
2023-01-29T07:49:24.924Z,9.6
2023-01-29T07:50:33.323Z,9.6
2023-01-29T07:51:41.683Z,9.6
2023-01-29T07:52:50.247Z,11.5
2023-01-29T07:53:58.614Z,11.5
2023-01-29T07:55:06.973Z,11.5
2023-01-29T07:56:15.530Z,11.1
2023-01-29T07:57:23.880Z,11.1
2023-01-29T07:58:32.253Z,11.1
2023-01-29T07:59:40.824Z,18.700001
2023-01-29T08:00:49.189Z,18.700001
2023-01-29T08:01:57.550Z,18.700001
2023-01-29T08:03:06.101Z,14.6
2023-01-29T08:04:14.452Z,14.6
2023-01-29T08:05:22.857Z,14.6
2023-01-29T08:06:31.417Z,17.700001
2023-01-29T08:07:39.774Z,17.700001
2023-01-29T08:08:48.150Z,17.700001
2023-01-29T08:09:56.728Z,13.9
2023-01-29T08:11:05.086Z,13.9
2023-01-29T08:12:13.438Z,13.9
2023-01-29T08:13:22.011Z,14
2023-01-29T08:14:30.355Z,14
2023-01-29T08:15:39.330Z,14
2023-01-29T08:16:47.460Z,13.2
2023-01-29T08:17:57.926Z,13.2
2023-01-29T08:19:05.061Z,13.2
2023-01-29T08:20:13.636Z,14.7
2023-01-29T08:21:21.988Z,14.7
2023-01-29T08:22:30.392Z,14.7
2023-01-29T08:23:38.931Z,92
2023-01-29T08:24:53.283Z,92
2023-01-29T08:25:55.703Z,92
2023-01-29T08:27:04.279Z,15.8
2023-01-29T08:28:12.660Z,15.8
2023-01-29T08:29:20.975Z,15.8
2023-01-29T08:30:29.535Z,14.6
2023-01-29T08:31:37.942Z,14.6
2023-01-29T08:32:46.258Z,14.6
2023-01-29T08:33:54.822Z,21.6
2023-01-29T08:35:03.208Z,21.6
2023-01-29T08:36:11.602Z,21.6
2023-01-29T08:37:20.166Z,15.7
2023-01-29T08:38:28.532Z,15.7
2023-01-29T08:39:36.888Z,15.7
2023-01-29T08:40:45.463Z,15
2023-01-29T08:41:53.825Z,15
2023-01-29T08:43:02.756Z,15
2023-01-29T08:44:10.769Z,13.5
2023-01-29T08:45:19.130Z,13.5
2023-01-29T08:46:27.477Z,13.5
2023-01-29T08:47:36.038Z,13.9
2023-01-29T08:48:44.413Z,13.9
2023-01-29T08:49:52.803Z,13.9
2023-01-29T08:51:01.375Z,15.6
2023-01-29T08:52:09.736Z,15.6
2023-01-29T08:53:18.067Z,15.6
2023-01-29T08:54:26.644Z,14.1
2023-01-29T08:55:34.990Z,14.1
2023-01-29T08:56:43.385Z,14.1
2023-01-29T08:57:51.967Z,12.2
2023-01-29T08:59:00.308Z,12.2
2023-01-29T09:00:08.649Z,12.2
2023-01-29T09:01:17.237Z,17.799999
2023-01-29T09:02:25.569Z,17.799999
2023-01-29T09:03:33.936Z,17.799999
2023-01-29T09:04:42.526Z,16.5
2023-01-29T09:05:50.860Z,16.5
2023-01-29T09:06:59.228Z,16.5
2023-01-29T09:08:07.810Z,12.1
2023-01-29T09:09:16.169Z,12.1
2023-01-29T09:10:24.520Z,12.1
2023-01-29T09:11:33.074Z,12.4
2023-01-29T09:12:41.447Z,12.4
2023-01-29T09:13:49.805Z,12.4
2023-01-29T09:14:58.371Z,16.1
2023-01-29T09:16:06.727Z,16.1
2023-01-29T09:17:15.101Z,16.1
2023-01-29T09:18:23.654Z,13.6
2023-01-29T09:19:32.009Z,13.6
2023-01-29T09:20:40.354Z,13.6
2023-01-29T09:21:48.918Z,11.5
2023-01-29T09:22:57.267Z,11.5
2023-01-29T09:24:05.623Z,11.5
2023-01-29T09:25:14.728Z,9.6
2023-01-29T09:26:22.579Z,9.6
2023-01-29T09:27:30.922Z,9.6
2023-01-29T09:28:39.485Z,10.9
2023-01-29T09:29:47.835Z,10.9
2023-01-29T09:30:56.270Z,10.9
2023-01-29T09:32:04.778Z,10.5
2023-01-29T09:33:13.173Z,10.5
2023-01-29T09:34:22.103Z,10.5
2023-01-29T09:35:30.651Z,17.6
2023-01-29T09:36:39.000Z,17.6
2023-01-29T09:37:47.361Z,17.6
2023-01-29T09:38:55.909Z,13
2023-01-29T09:40:04.280Z,13
2023-01-29T09:41:12.626Z,13
2023-01-29T09:42:21.196Z,13.9
2023-01-29T09:43:29.593Z,13.9
2023-01-29T09:44:37.954Z,13.9
2023-01-29T09:45:46.553Z,11
2023-01-29T09:46:54.956Z,11
2023-01-29T09:48:03.292Z,11
2023-01-29T09:49:11.843Z,12.3
2023-01-29T09:50:20.459Z,12.3
2023-01-29T09:51:28.551Z,12.3
2023-01-29T09:52:37.118Z,14.7
2023-01-29T09:53:45.496Z,14.7
2023-01-29T09:54:53.824Z,14.7
2023-01-29T09:56:02.409Z,14.7
2023-01-29T09:57:10.795Z,14.7
2023-01-29T09:58:19.140Z,14.7
2023-01-29T09:59:27.713Z,13.4
2023-01-29T10:00:36.067Z,13.4
2023-01-29T10:01:44.536Z,13.4
2023-01-29T10:02:52.991Z,14.5
2023-01-29T10:04:01.336Z,14.5
2023-01-29T10:05:09.700Z,14.5
2023-01-29T10:06:18.288Z,12.7
2023-01-29T10:07:26.693Z,12.7
2023-01-29T10:08:35.039Z,12.7
2023-01-29T10:09:43.623Z,12.9
2023-01-29T10:10:51.963Z,12.9
2023-01-29T10:12:00.328Z,12.9
2023-01-29T10:13:08.981Z,19.1
2023-01-29T10:14:17.365Z,19.1
2023-01-29T10:15:25.679Z,19.1
2023-01-29T10:16:34.322Z,13.3
2023-01-29T10:17:42.651Z,13.3
2023-01-29T10:18:51.017Z,13.3
2023-01-29T10:19:59.578Z,12.3
2023-01-29T10:21:07.961Z,12.3
2023-01-29T10:22:16.318Z,12.3
2023-01-29T10:23:24.877Z,14.6
2023-01-29T10:24:33.219Z,14.6
2023-01-29T10:25:41.560Z,14.6
2023-01-29T10:26:50.149Z,13.6
2023-01-29T10:27:58.497Z,13.6
2023-01-29T10:29:06.833Z,13.6
2023-01-29T10:30:15.391Z,18.5
2023-01-29T10:31:23.832Z,18.5
2023-01-29T10:32:32.145Z,18.5
2023-01-29T10:33:48.855Z,16.6
2023-01-29T10:34:49.095Z,16.6
2023-01-29T10:35:57.491Z,16.6
2023-01-29T10:37:06.083Z,22.200001
2023-01-29T10:38:14.462Z,22.200001
2023-01-29T10:39:22.791Z,22.200001
2023-01-29T10:40:31.372Z,18.1
2023-01-29T10:41:39.724Z,18.1
2023-01-29T10:42:48.091Z,18.1
2023-01-29T10:43:56.645Z,12.8
2023-01-29T10:45:05.109Z,12.8
2023-01-29T10:46:13.351Z,12.8
2023-01-29T10:47:21.969Z,14.2
2023-01-29T10:48:30.307Z,14.2
2023-01-29T10:49:38.666Z,14.2
2023-01-29T10:50:47.235Z,14.8
2023-01-29T10:51:55.600Z,14.8
2023-01-29T10:53:03.956Z,14.8
2023-01-29T10:54:12.513Z,10.6
2023-01-29T10:55:20.871Z,10.6
2023-01-29T10:56:29.210Z,10.6
2023-01-29T10:57:37.779Z,10.9
2023-01-29T10:58:46.880Z,10.9
2023-01-29T10:59:54.489Z,10.9
2023-01-29T11:01:03.036Z,10.8
2023-01-29T11:02:11.397Z,10.8
2023-01-29T11:03:27.275Z,10.8
2023-01-29T11:04:28.326Z,13.7
2023-01-29T11:05:36.655Z,13.7
2023-01-29T11:06:45.030Z,13.7
2023-01-29T11:07:53.582Z,13.5
2023-01-29T11:09:01.961Z,13.5
2023-01-29T11:10:10.324Z,13.5
2023-01-29T11:11:18.883Z,13.9
2023-01-29T11:12:27.271Z,13.9
2023-01-29T11:13:35.585Z,13.9
2023-01-29T11:14:44.148Z,13.9
2023-01-29T11:15:52.517Z,13.9
2023-01-29T11:17:01.006Z,13.9
2023-01-29T11:18:09.510Z,13.9
2023-01-29T11:19:17.851Z,13.9
2023-01-29T11:20:26.755Z,13.9
2023-01-29T11:21:35.304Z,12.9
2023-01-29T11:22:43.663Z,12.9
2023-01-29T11:23:52.011Z,12.9
2023-01-29T11:25:00.617Z,12.6
2023-01-29T11:26:09.022Z,12.6
2023-01-29T11:27:17.388Z,12.6
2023-01-29T11:28:25.956Z,15.2
2023-01-29T11:29:34.329Z,15.2
2023-01-29T11:30:42.737Z,15.2
2023-01-29T11:31:51.277Z,12.1
2023-01-29T11:32:59.642Z,12.1
2023-01-29T11:34:08.000Z,12.1
2023-01-29T11:35:16.598Z,13.2
2023-01-29T11:36:24.944Z,13.2
2023-01-29T11:37:34.007Z,13.2
2023-01-29T11:38:42.559Z,13
2023-01-29T11:39:50.907Z,13
2023-01-29T11:40:59.265Z,13
2023-01-29T11:42:07.869Z,62.900002
2023-01-29T11:43:16.208Z,62.900002
2023-01-29T11:44:24.560Z,62.900002
2023-01-29T11:45:33.172Z,15.1
2023-01-29T11:46:42.202Z,15.1
2023-01-29T11:47:50.578Z,15.1
2023-01-29T11:49:05.920Z,13.3
2023-01-29T11:50:07.505Z,13.3
2023-01-29T11:51:17.323Z,13.3
2023-01-29T11:52:26.426Z,12.9
2023-01-29T11:53:34.773Z,12.9
2023-01-29T11:54:43.180Z,12.9
2023-01-29T11:55:51.757Z,13.7
2023-01-29T11:57:00.116Z,13.7
2023-01-29T11:58:08.474Z,13.7
2023-01-29T11:59:17.030Z,15.7
2023-01-29T12:00:25.385Z,15.7
2023-01-29T12:01:33.750Z,15.7
2023-01-29T12:02:42.337Z,13.1
2023-01-29T12:03:50.690Z,13.1
2023-01-29T12:04:59.016Z,13.1
2023-01-29T12:06:07.645Z,13.7
2023-01-29T12:07:17.005Z,13.7
2023-01-29T12:08:25.363Z,13.7
2023-01-29T12:09:34.458Z,12.9
2023-01-29T12:10:44.197Z,12.9
2023-01-29T12:11:52.606Z,12.9
2023-01-29T12:13:01.148Z,14.3
2023-01-29T12:14:09.525Z,14.3
2023-01-29T12:15:17.886Z,14.3
2023-01-29T12:16:26.467Z,27.5
2023-01-29T12:17:34.823Z,27.5
2023-01-29T12:18:43.188Z,27.5
2023-01-29T12:19:51.807Z,14.9
2023-01-29T12:21:00.156Z,14.9
2023-01-29T12:22:08.584Z,14.9
2023-01-29T12:23:17.123Z,15.2
2023-01-29T12:24:26.738Z,15.2
2023-01-29T12:25:35.101Z,15.2
2023-01-29T12:26:46.094Z,15.3
2023-01-29T12:27:54.372Z,15.3
2023-01-29T12:29:02.726Z,15.3
2023-01-29T12:30:11.272Z,15.9
2023-01-29T12:31:19.622Z,15.9
2023-01-29T12:32:27.963Z,15.9
2023-01-29T12:33:37.799Z,14.6
2023-01-29T12:34:50.478Z,14.6
2023-01-29T12:36:02.905Z,14.6
2023-01-29T12:37:11.449Z,19.6
2023-01-29T12:38:19.787Z,19.6
2023-01-29T12:39:28.125Z,19.6
2023-01-29T12:40:36.675Z,20.4
2023-01-29T12:41:46.555Z,20.4
2023-01-29T12:42:56.909Z,20.4
2023-01-29T12:44:05.488Z,13
2023-01-29T12:45:13.845Z,13
2023-01-29T12:46:22.191Z,13
2023-01-29T12:47:30.749Z,15.8
2023-01-29T12:48:39.107Z,15.8
2023-01-29T12:49:47.452Z,15.8
2023-01-29T12:50:56.015Z,14.6
2023-01-29T12:52:04.375Z,14.6
2023-01-29T12:53:12.714Z,14.6
2023-01-29T12:54:21.263Z,15.2
2023-01-29T12:55:29.658Z,15.2
2023-01-29T12:56:37.979Z,15.2
2023-01-29T12:57:46.539Z,18.6
2023-01-29T12:58:54.881Z,18.6
2023-01-29T13:00:03.222Z,18.6
2023-01-29T13:01:11.837Z,15.5
2023-01-29T13:02:20.141Z,15.5
2023-01-29T13:03:28.525Z,15.5
2023-01-29T13:04:37.010Z,17.1
2023-01-29T13:05:45.342Z,17.1
2023-01-29T13:06:53.721Z,17.1
2023-01-29T13:08:02.296Z,15.4
2023-01-29T13:09:10.643Z,15.4
2023-01-29T13:10:19.402Z,15.4
2023-01-29T13:11:27.558Z,15
2023-01-29T13:12:35.925Z,15
2023-01-29T13:13:44.271Z,15
2023-01-29T13:14:52.862Z,16.6
2023-01-29T13:16:01.320Z,16.6
2023-01-29T13:17:09.549Z,16.6
2023-01-29T13:18:18.099Z,16.799999
2023-01-29T13:19:26.469Z,16.799999
2023-01-29T13:20:34.817Z,16.799999
2023-01-29T13:21:43.367Z,15.6
2023-01-29T13:22:51.731Z,15.6
2023-01-29T13:24:00.095Z,15.6
2023-01-29T13:25:08.619Z,14.6
2023-01-29T13:26:16.983Z,14.6
2023-01-29T13:27:25.327Z,14.6
2023-01-29T13:28:33.871Z,14.4
2023-01-29T13:29:42.219Z,14.4
2023-01-29T13:30:50.595Z,14.4
2023-01-29T13:31:59.210Z,22.6
2023-01-29T13:33:07.515Z,22.6
2023-01-29T13:34:15.872Z,22.6
2023-01-29T13:35:24.418Z,17.200001
2023-01-29T13:36:32.767Z,17.200001
2023-01-29T13:37:41.130Z,17.200001
2023-01-29T13:38:49.688Z,13.5
2023-01-29T13:39:58.037Z,13.5
2023-01-29T13:41:06.388Z,13.5
2023-01-29T13:42:14.953Z,18.1
2023-01-29T13:43:23.294Z,18.1
2023-01-29T13:44:31.637Z,18.1
2023-01-29T13:45:40.241Z,15.7
2023-01-29T13:46:48.593Z,15.7
2023-01-29T13:47:56.971Z,15.7
2023-01-29T13:49:05.527Z,14.4
2023-01-29T13:50:13.903Z,14.4
2023-01-29T13:51:22.251Z,14.4
2023-01-29T13:52:30.836Z,14.5
2023-01-29T13:53:39.202Z,14.5
2023-01-29T13:54:47.558Z,14.5
2023-01-29T13:55:56.150Z,22.4
2023-01-29T13:57:04.511Z,22.4
2023-01-29T13:58:12.860Z,22.4
2023-01-29T13:59:21.424Z,15.9
2023-01-29T14:00:29.787Z,15.9
2023-01-29T14:01:38.149Z,15.9
2023-01-29T14:02:46.773Z,25.4
2023-01-29T14:04:08.355Z,25.4
2023-01-29T14:05:03.437Z,25.4
2023-01-29T14:06:12.029Z,25.700001
2023-01-29T14:07:20.387Z,25.700001
2023-01-29T14:08:28.755Z,25.700001
2023-01-29T14:09:37.314Z,14
2023-01-29T14:10:45.686Z,14
2023-01-29T14:11:54.024Z,14
2023-01-29T14:13:02.584Z,15
2023-01-29T14:14:10.921Z,15
2023-01-29T14:15:21.380Z,15
2023-01-29T14:16:27.897Z,25.799999
2023-01-29T14:17:36.274Z,25.799999
2023-01-29T14:18:44.641Z,25.799999
2023-01-29T14:19:53.219Z,14.6
2023-01-29T14:21:01.585Z,14.6
2023-01-29T14:22:09.940Z,14.6
2023-01-29T14:23:18.521Z,34.200001
2023-01-29T14:24:26.849Z,34.200001
2023-01-29T14:25:35.204Z,34.200001
2023-01-29T14:26:43.928Z,19.5
2023-01-29T14:27:52.145Z,19.5
2023-01-29T14:29:00.504Z,19.5
2023-01-29T14:30:09.060Z,15.9
2023-01-29T14:31:17.500Z,15.9
2023-01-29T15:04:39.274Z,0
2023-01-29T15:05:47.659Z,0
2023-01-29T15:06:55.994Z,0
2023-01-29T15:08:04.570Z,16.200001
2023-01-29T15:09:12.963Z,16.200001
2023-01-29T15:10:22.956Z,16.200001
2023-01-29T15:11:29.879Z,15.9
2023-01-29T15:12:38.222Z,15.9
2023-01-29T15:13:46.604Z,15.9
2023-01-29T15:14:55.185Z,16
2023-01-29T15:16:03.587Z,16
2023-01-29T15:17:11.895Z,16
2023-01-29T15:18:20.455Z,15.5
2023-01-29T15:19:28.806Z,15.5
2023-01-29T15:20:37.135Z,15.5
2023-01-29T15:21:45.728Z,16.9
2023-01-29T15:22:54.059Z,16.9
2023-01-29T15:24:02.415Z,16.9
2023-01-29T15:25:10.961Z,16.4
2023-01-29T15:26:19.325Z,16.4
2023-01-29T15:27:27.683Z,16.4
2023-01-29T15:28:36.269Z,17.200001
2023-01-29T15:29:44.592Z,17.200001
2023-01-29T15:30:53.003Z,17.200001
2023-01-29T15:32:01.606Z,19.6
2023-01-29T15:33:09.871Z,19.6
2023-01-29T15:34:18.206Z,19.6
2023-01-29T15:35:26.779Z,17.799999
2023-01-29T15:36:35.128Z,17.799999
2023-01-29T15:37:43.503Z,17.799999
2023-01-29T15:38:52.074Z,24.200001
2023-01-29T15:40:00.422Z,24.200001
2023-01-29T15:41:08.811Z,24.200001
2023-01-29T15:42:17.342Z,25.299999
2023-01-29T15:43:25.696Z,25.299999
2023-01-29T15:44:34.040Z,25.299999
2023-01-29T15:45:42.575Z,19.799999
2023-01-29T15:46:50.940Z,19.799999
2023-01-29T15:47:59.313Z,19.799999
2023-01-29T15:49:07.869Z,25.799999